Time;durP1;ratioP1;P1;durP2;ratioP2;P2;SDS_P1;SDS_P2;PMS_P1;PMS_P2;Temp;Humidity;BMP_temperature;BMP_pressure;BME280_temperature;BME280_humidity;BME280_pressure;Samples;Min_cycle;Max_cycle;Signal;HPM_P1;HPM_P2
2022/02/20 00:00:19;;;;;;;6.75;1.70;;;7.40;99.90;;;;;;5214589;22;20373;-71
2022/02/20 00:02:19;;;;;;;7.43;1.75;;;7.30;99.90;;;;;;5215142;22;20007;-71
2022/02/20 00:04:20;;;;;;;4.30;1.60;;;7.20;99.90;;;;;;5187622;22;20019;-71
2022/02/20 00:06:21;;;;;;;8.38;2.70;;;7.20;99.90;;;;;;5187328;22;20079;-71
2022/02/20 00:08:21;;;;;;;8.07;1.85;;;7.20;99.90;;;;;;5215027;22;20007;-71
2022/02/20 00:10:22;;;;;;;4.88;1.80;;;7.20;99.90;;;;;;5187211;22;20019;-71
2022/02/20 00:12:22;;;;;;;6.30;1.80;;;7.20;99.90;;;;;;5214772;22;20016;-71
2022/02/20 00:14:23;;;;;;;12.55;2.70;;;7.30;99.90;;;;;;5214683;22;20087;-71
2022/02/20 00:16:24;;;;;;;10.68;2.50;;;7.20;99.90;;;;;;5215083;22;20011;-71
2022/02/20 00:18:24;;;;;;;7.07;2.33;;;7.10;99.90;;;;;;5215486;22;20016;-71
2022/02/20 00:20:25;;;;;;;12.25;2.53;;;7.20;99.90;;;;;;5215407;22;20042;-71
2022/02/20 00:22:27;;;;;;;10.30;2.47;;;7.10;99.90;;;;;;5215415;22;20015;-71
2022/02/20 00:24:27;;;;;;;10.87;2.00;;;7.10;99.90;;;;;;5215203;22;20023;-71
2022/02/20 00:26:28;;;;;;;10.88;2.42;;;7.10;99.90;;;;;;5187231;22;20223;-71
2022/02/20 00:28:28;;;;;;;10.82;2.70;;;7.00;99.90;;;;;;5215377;22;20038;-71
2022/02/20 00:30:30;;;;;;;9.32;2.28;;;7.00;99.90;;;;;;5214961;22;20011;-71
2022/02/20 00:32:30;;;;;;;10.57;1.98;;;6.90;99.90;;;;;;5214833;22;20140;-71
2022/02/20 00:34:31;;;;;;;11.43;2.22;;;7.00;99.90;;;;;;5215029;22;20008;-71
2022/02/20 00:36:31;;;;;;;9.60;2.38;;;6.90;99.90;;;;;;5214119;22;20011;-71
2022/02/20 00:38:32;;;;;;;8.27;2.20;;;6.90;99.90;;;;;;5187672;22;20015;-71
2022/02/20 00:40:33;;;;;;;6.90;1.92;;;6.80;99.90;;;;;;5214217;22;20031;-71
2022/02/20 00:42:34;;;;;;;15.30;2.53;;;6.80;99.90;;;;;;5187640;22;20058;-71
2022/02/20 00:44:34;;;;;;;11.10;2.17;;;6.80;99.90;;;;;;5214970;22;20436;-71
2022/02/20 00:46:35;;;;;;;5.20;1.83;;;6.70;99.90;;;;;;5213977;22;20014;-71
2022/02/20 00:48:35;;;;;;;7.60;2.10;;;6.70;99.90;;;;;;5187026;22;20011;-71
2022/02/20 00:50:36;;;;;;;5.38;1.73;;;6.70;99.90;;;;;;5214014;22;20015;-71
2022/02/20 00:52:37;;;;;;;9.27;1.98;;;6.60;99.90;;;;;;5215335;22;20011;-71
2022/02/20 00:54:38;;;;;;;7.47;1.55;;;6.60;99.90;;;;;;5187639;22;20042;-71
2022/02/20 00:56:38;;;;;;;5.97;1.65;;;6.60;99.90;;;;;;5187200;22;20014;-71
2022/02/20 00:58:39;;;;;;;9.32;2.15;;;6.60;99.90;;;;;;5215256;22;20090;-71
2022/02/20 01:00:40;;;;;;;8.85;1.83;;;6.60;99.90;;;;;;5161933;23;20000;-71
2022/02/20 01:02:41;;;;;;;9.48;2.10;;;6.50;99.90;;;;;;5187346;22;20004;-71
2022/02/20 01:04:41;;;;;;;7.45;1.85;;;6.60;99.90;;;;;;5215723;22;20000;-70
2022/02/20 01:06:42;;;;;;;12.93;2.15;;;6.50;99.90;;;;;;5214437;22;20003;-71
2022/02/20 01:08:42;;;;;;;13.25;2.40;;;6.60;99.90;;;;;;5215253;22;20011;-71
2022/02/20 01:10:43;;;;;;;10.40;2.20;;;6.60;99.90;;;;;;5214716;22;20019;-71
2022/02/20 01:12:44;;;;;;;11.15;2.35;;;6.60;99.90;;;;;;5214961;22;20068;-71
2022/02/20 01:14:45;;;;;;;8.25;2.17;;;6.60;99.90;;;;;;5214969;22;20013;-71
2022/02/20 01:16:46;;;;;;;9.43;1.88;;;6.60;99.90;;;;;;5214083;22;20060;-71
2022/02/20 01:18:47;;;;;;;10.75;2.55;;;6.60;99.90;;;;;;5187252;22;20071;-71
2022/02/20 01:20:47;;;;;;;9.35;2.20;;;6.50;99.90;;;;;;5214168;22;20014;-71
2022/02/20 01:22:48;;;;;;;11.75;2.20;;;6.50;99.90;;;;;;5214300;22;20011;-71
2022/02/20 01:24:48;;;;;;;6.32;1.98;;;6.50;99.90;;;;;;5214341;22;20135;-71
2022/02/20 01:26:49;;;;;;;11.13;2.55;;;6.50;99.90;;;;;;5213968;22;20025;-71
2022/02/20 01:28:50;;;;;;;13.93;2.40;;;6.50;99.90;;;;;;5187294;22;20012;-71
2022/02/20 01:30:50;;;;;;;9.95;2.10;;;6.50;99.90;;;;;;5213660;22;20007;-71
2022/02/20 01:32:51;;;;;;;8.95;2.33;;;6.50;99.90;;;;;;5214396;22;20293;-71
2022/02/20 01:34:51;;;;;;;10.98;1.95;;;6.60;99.90;;;;;;5187066;22;20012;-71
2022/02/20 01:36:52;;;;;;;8.80;1.60;;;6.50;99.90;;;;;;5186285;22;20011;-71
2022/02/20 01:38:53;;;;;;;10.55;1.83;;;6.50;99.90;;;;;;5187603;22;20003;-71
2022/02/20 01:40:56;;;;;;;9.32;1.98;;;6.50;99.90;;;;;;5213588;22;20094;-71
2022/02/20 01:42:57;;;;;;;10.48;2.30;;;6.50;99.90;;;;;;5213515;22;20344;-71
2022/02/20 01:44:58;;;;;;;9.30;2.10;;;6.50;99.90;;;;;;5187315;22;20011;-71
2022/02/20 01:47:05;;;;;;;8.40;1.60;;;6.50;99.90;;;;;;5186608;22;20077;-71
2022/02/20 01:49:06;;;;;;;9.85;2.10;;;6.60;99.90;;;;;;5213899;22;20008;-71
2022/02/20 01:51:06;;;;;;;5.72;1.55;;;6.50;99.90;;;;;;5214450;22;20022;-71
2022/02/20 01:53:07;;;;;;;10.10;2.30;;;6.50;99.90;;;;;;5214953;22;20088;-71
2022/02/20 01:55:08;;;;;;;10.25;2.05;;;6.50;99.90;;;;;;5214792;22;20019;-71
2022/02/20 01:57:08;;;;;;;8.60;2.03;;;6.50;99.90;;;;;;5215317;22;20030;-71
2022/02/20 01:59:09;;;;;;;9.68;2.03;;;6.50;99.90;;;;;;5214733;22;20011;-71
2022/02/20 02:01:10;;;;;;;10.00;2.20;;;6.50;99.90;;;;;;5186732;22;20019;-69
2022/02/20 02:03:13;;;;;;;10.32;2.38;;;6.50;99.90;;;;;;5187360;22;20094;-69
2022/02/20 02:05:14;;;;;;;9.55;1.88;;;6.40;99.90;;;;;;5214873;22;20034;-69
2022/02/20 02:07:15;;;;;;;9.30;2.03;;;6.50;99.90;;;;;;5214902;22;20094;-69
2022/02/20 02:09:17;;;;;;;9.35;1.90;;;6.40;99.90;;;;;;5215102;22;20065;-69
2022/02/20 02:11:19;;;;;;;15.18;2.50;;;6.50;99.90;;;;;;5186026;22;20012;-69
2022/02/20 02:13:19;;;;;;;5.75;1.60;;;6.50;99.90;;;;;;5215275;22;20007;-69
2022/02/20 02:15:20;;;;;;;9.73;2.20;;;6.50;99.90;;;;;;5214443;22;20070;-69
2022/02/20 02:17:21;;;;;;;6.63;1.70;;;6.50;99.90;;;;;;5214728;22;20090;-69
2022/02/20 02:19:21;;;;;;;17.35;2.17;;;6.50;99.90;;;;;;5214784;22;20013;-69
2022/02/20 02:21:22;;;;;;;7.78;1.48;;;6.50;99.90;;;;;;5213892;22;20141;-69
2022/02/20 02:23:23;;;;;;;13.55;2.35;;;6.40;99.90;;;;;;5215566;22;20133;-69
2022/02/20 02:25:24;;;;;;;5.70;1.85;;;6.50;99.90;;;;;;5215685;22;20018;-69
2022/02/20 02:27:25;;;;;;;5.60;1.58;;;6.50;99.90;;;;;;5216352;22;20011;-69
2022/02/20 02:29:27;;;;;;;8.85;2.10;;;6.60;99.90;;;;;;5215649;22;22358;-69
2022/02/20 02:31:28;;;;;;;5.78;1.50;;;6.50;99.90;;;;;;5216031;22;20007;-69
2022/02/20 02:33:30;;;;;;;4.15;1.83;;;6.60;99.90;;;;;;5217051;22;20007;-69
2022/02/20 02:35:31;;;;;;;8.00;2.40;;;6.50;99.90;;;;;;5216152;22;20330;-69
2022/02/20 02:38:27;;;;;;;6.88;1.77;;;6.60;99.90;;;;;;5216493;22;20017;-69
2022/02/20 02:40:28;;;;;;;4.53;1.92;;;6.60;99.90;;;;;;5214322;22;20068;-69
2022/02/20 02:42:28;;;;;;;9.38;2.40;;;6.50;99.90;;;;;;5216569;22;20015;-69
2022/02/20 02:44:29;;;;;;;7.63;1.88;;;6.60;99.90;;;;;;5188383;22;20031;-69
2022/02/20 02:46:32;;;;;;;6.22;1.75;;;6.50;99.90;;;;;;5216297;22;20011;-69
2022/02/20 02:48:33;;;;;;;5.53;1.95;;;6.50;99.90;;;;;;5216531;22;20015;-69
2022/02/20 02:50:34;;;;;;;5.55;2.03;;;6.50;99.90;;;;;;5215890;22;20034;-69
2022/02/20 02:52:34;;;;;;;4.95;1.73;;;6.60;99.90;;;;;;5216076;22;20012;-69
2022/02/20 02:54:35;;;;;;;9.70;2.08;;;6.60;99.90;;;;;;5216173;22;20065;-69
2022/02/20 02:56:36;;;;;;;5.55;2.17;;;6.50;99.90;;;;;;5216144;22;20018;-69
2022/02/20 02:58:37;;;;;;;7.80;2.40;;;6.50;99.90;;;;;;5215842;22;20347;-69
2022/02/20 03:00:38;;;;;;;5.95;1.98;;;6.50;99.90;;;;;;5216811;22;20012;-69
2022/02/20 03:02:39;;;;;;;6.75;2.22;;;6.50;99.90;;;;;;5217900;22;20048;-70
2022/02/20 03:04:40;;;;;;;6.90;2.22;;;6.60;99.90;;;;;;5219499;22;20019;-70
2022/02/20 03:06:41;;;;;;;4.85;2.20;;;6.50;99.90;;;;;;5217799;22;20502;-70
2022/02/20 03:08:41;;;;;;;4.88;1.95;;;6.50;99.90;;;;;;5219405;22;20018;-70
2022/02/20 03:10:42;;;;;;;3.95;1.55;;;6.50;99.90;;;;;;5218378;22;20431;-70
2022/02/20 03:12:42;;;;;;;5.22;1.60;;;6.50;99.90;;;;;;5218299;22;20086;-70
2022/02/20 03:14:43;;;;;;;3.85;1.52;;;6.50;99.90;;;;;;5218340;22;20010;-70
2022/02/20 03:16:44;;;;;;;6.72;1.85;;;6.50;99.90;;;;;;5217899;22;20038;-70
2022/02/20 03:18:44;;;;;;;4.30;1.15;;;6.60;99.90;;;;;;5190112;22;20515;-70
2022/02/20 03:20:45;;;;;;;12.90;1.35;;;6.60;99.90;;;;;;5217570;22;20030;-70
2022/02/20 03:22:45;;;;;;;4.93;1.60;;;6.60;99.90;;;;;;5190481;22;20008;-70
2022/02/20 03:24:46;;;;;;;4.40;1.33;;;6.60;99.90;;;;;;5218606;22;20039;-70
2022/02/20 03:26:46;;;;;;;7.55;1.60;;;6.60;99.90;;;;;;5217776;22;20015;-70
2022/02/20 03:28:47;;;;;;;6.95;1.58;;;6.60;99.90;;;;;;5217505;22;20011;-70
2022/02/20 03:30:48;;;;;;;6.18;1.27;;;6.60;99.90;;;;;;5217785;22;20008;-70
2022/02/20 03:32:49;;;;;;;5.38;1.23;;;6.60;99.90;;;;;;5218557;22;20007;-70
2022/02/20 03:34:49;;;;;;;4.00;1.27;;;6.60;99.90;;;;;;5190158;22;20078;-70
2022/02/20 03:36:50;;;;;;;5.82;1.35;;;6.60;99.90;;;;;;5217094;22;20003;-70
2022/02/20 03:38:51;;;;;;;7.40;0.90;;;6.60;99.90;;;;;;5218490;22;20011;-70
2022/02/20 03:40:52;;;;;;;8.77;2.05;;;6.60;99.90;;;;;;5218005;22;20065;-70
2022/02/20 03:42:52;;;;;;;9.35;1.40;;;6.60;99.90;;;;;;5190109;22;20854;-70
2022/02/20 03:44:53;;;;;;;7.40;1.30;;;6.60;99.90;;;;;;5191081;22;20372;-70
2022/02/20 03:46:54;;;;;;;8.15;1.42;;;6.60;99.90;;;;;;5189032;22;20008;-70
2022/02/20 03:48:54;;;;;;;3.88;1.17;;;6.60;99.90;;;;;;5217734;22;20262;-70
2022/02/20 03:50:55;;;;;;;3.38;0.82;;;6.60;99.90;;;;;;5217295;22;20031;-70
2022/02/20 03:52:55;;;;;;;9.40;1.50;;;6.50;99.90;;;;;;5217253;22;20018;-70
2022/02/20 03:54:56;;;;;;;4.90;1.20;;;6.60;99.90;;;;;;5188221;22;20014;-70
2022/02/20 03:56:57;;;;;;;2.72;0.80;;;6.60;99.90;;;;;;5214823;22;20003;-70
2022/02/20 03:58:58;;;;;;;3.65;0.98;;;6.60;99.90;;;;;;5215577;22;20015;-70
2022/02/20 04:00:59;;;;;;;3.40;1.02;;;6.60;99.90;;;;;;5214504;22;20033;-70
2022/02/20 04:02:59;;;;;;;4.85;1.20;;;6.70;99.90;;;;;;5215449;22;20318;-70
2022/02/20 04:05:00;;;;;;;4.57;1.05;;;6.70;99.90;;;;;;5215887;22;20419;-70
2022/02/20 04:07:01;;;;;;;5.10;1.27;;;6.60;99.90;;;;;;5215205;22;20007;-70
2022/02/20 04:09:02;;;;;;;4.22;1.17;;;6.60;99.90;;;;;;5215603;22;20019;-70
2022/02/20 04:11:02;;;;;;;4.28;1.13;;;6.70;99.90;;;;;;5215064;22;20078;-70
2022/02/20 04:13:03;;;;;;;7.45;1.60;;;6.60;99.90;;;;;;5215243;22;20021;-70
2022/02/20 04:15:08;;;;;;;7.25;1.80;;;6.60;99.90;;;;;;5215372;22;20011;-70
2022/02/20 04:17:08;;;;;;;7.25;1.40;;;6.60;99.90;;;;;;5214757;22;20042;-70
2022/02/20 04:19:09;;;;;;;5.55;1.92;;;6.60;99.90;;;;;;5216864;22;20348;-70
2022/02/20 04:21:10;;;;;;;6.25;1.73;;;6.60;99.90;;;;;;5215732;22;20014;-70
2022/02/20 04:23:10;;;;;;;5.82;1.90;;;6.60;99.90;;;;;;5216601;22;20015;-70
2022/02/20 04:25:11;;;;;;;3.85;1.30;;;6.60;99.90;;;;;;5215857;22;20715;-70
2022/02/20 04:27:12;;;;;;;8.80;2.20;;;6.60;99.90;;;;;;5188178;22;20007;-70
2022/02/20 04:29:15;;;;;;;5.65;1.42;;;6.50;99.90;;;;;;5216605;22;20030;-70
2022/02/20 04:31:17;;;;;;;4.47;1.48;;;6.50;99.90;;;;;;5187107;22;20014;-70
2022/02/20 04:33:17;;;;;;;3.15;1.05;;;6.50;99.90;;;;;;5188137;22;20087;-70
2022/02/20 04:35:18;;;;;;;4.05;1.50;;;6.60;99.90;;;;;;5215051;22;20506;-70
2022/02/20 04:37:19;;;;;;;4.75;1.52;;;6.60;99.90;;;;;;5187833;22;20073;-70
2022/02/20 04:39:19;;;;;;;8.07;1.52;;;6.60;99.90;;;;;;5214707;22;20014;-70
2022/02/20 04:41:21;;;;;;;5.07;1.60;;;6.60;99.90;;;;;;5214781;22;20086;-70
2022/02/20 04:43:22;;;;;;;3.40;1.38;;;6.60;99.90;;;;;;5214817;22;20019;-70
2022/02/20 04:45:22;;;;;;;5.50;1.90;;;6.60;99.90;;;;;;5214888;22;20016;-70
2022/02/20 04:47:23;;;;;;;6.15;1.83;;;6.60;99.90;;;;;;5215020;22;20018;-70
2022/02/20 04:49:24;;;;;;;5.43;1.48;;;6.60;99.90;;;;;;5187179;22;20150;-70
2022/02/20 04:51:24;;;;;;;7.53;1.60;;;6.60;99.90;;;;;;5186889;22;20094;-70
2022/02/20 04:53:25;;;;;;;5.95;1.58;;;6.60;99.90;;;;;;5214964;22;20015;-70
2022/02/20 04:55:25;;;;;;;4.93;1.40;;;6.60;99.90;;;;;;5214556;22;20011;-70
2022/02/20 04:57:31;;;;;;;8.18;1.95;;;6.60;99.90;;;;;;5187204;22;20012;-70
2022/02/20 04:59:32;;;;;;;6.90;1.70;;;6.60;99.90;;;;;;5214263;22;20011;-70
2022/02/20 05:01:32;;;;;;;4.45;1.60;;;6.50;99.90;;;;;;5213677;22;20035;-70
2022/02/20 05:03:33;;;;;;;9.38;2.13;;;6.60;99.90;;;;;;5161810;23;20354;-70
2022/02/20 05:05:37;;;;;;;4.40;1.83;;;6.60;99.90;;;;;;5214434;22;20019;-70
2022/02/20 05:07:38;;;;;;;5.53;1.75;;;6.50;99.90;;;;;;5214294;22;20387;-70
2022/02/20 05:09:39;;;;;;;6.75;1.90;;;6.50;99.90;;;;;;5214358;22;20007;-70
2022/02/20 05:11:39;;;;;;;5.75;1.70;;;6.50;99.90;;;;;;5186242;22;20086;-70
2022/02/20 05:13:41;;;;;;;4.43;2.10;;;6.50;99.90;;;;;;5162113;23;20011;-70
2022/02/20 05:15:41;;;;;;;7.00;2.05;;;6.50;99.90;;;;;;5215507;22;20007;-70
2022/02/20 05:17:43;;;;;;;4.35;2.10;;;6.40;99.90;;;;;;5215450;22;20386;-70
2022/02/20 05:19:43;;;;;;;8.75;2.53;;;6.50;99.90;;;;;;5215100;22;20017;-70
2022/02/20 05:21:44;;;;;;;10.65;2.85;;;6.40;99.90;;;;;;5214720;22;20011;-70
2022/02/20 05:23:45;;;;;;;4.65;2.10;;;6.40;99.90;;;;;;5202111;22;20022;-70
2022/02/20 05:25:45;;;;;;;8.65;2.80;;;6.50;99.90;;;;;;5161308;23;20009;-70
2022/02/20 05:27:46;;;;;;;4.45;2.47;;;6.30;99.90;;;;;;5187700;22;20014;-70
2022/02/20 05:29:46;;;;;;;7.95;2.97;;;6.30;99.90;;;;;;5215476;22;20015;-70
2022/02/20 05:31:47;;;;;;;7.70;2.92;;;6.30;99.90;;;;;;5215085;22;20072;-70
2022/02/20 05:33:47;;;;;;;9.35;2.95;;;6.30;99.90;;;;;;5215107;22;20015;-70
2022/02/20 05:35:48;;;;;;;8.75;2.80;;;6.40;99.90;;;;;;5214521;22;20121;-70
2022/02/20 05:37:50;;;;;;;5.55;2.97;;;6.40;99.90;;;;;;5188118;22;24310;-70
2022/02/20 05:39:51;;;;;;;10.25;3.67;;;6.30;99.90;;;;;;5187482;22;20027;-70
2022/02/20 05:41:51;;;;;;;7.05;3.00;;;6.30;99.90;;;;;;5186875;22;20441;-70
2022/02/20 05:43:52;;;;;;;6.75;3.63;;;6.30;99.90;;;;;;5187382;22;20095;-70
2022/02/20 05:45:53;;;;;;;9.95;3.38;;;6.20;99.90;;;;;;5214322;22;20030;-70
2022/02/20 05:47:54;;;;;;;7.85;3.15;;;6.20;99.90;;;;;;5187175;22;20035;-70
2022/02/20 05:49:55;;;;;;;8.00;3.20;;;6.20;99.90;;;;;;5187947;22;20008;-70
2022/02/20 05:51:55;;;;;;;5.72;3.05;;;6.20;99.90;;;;;;5214814;22;20084;-71
2022/02/20 05:53:56;;;;;;;5.80;2.70;;;6.20;99.90;;;;;;5187285;22;20040;-71
2022/02/20 05:55:57;;;;;;;8.35;3.70;;;6.20;99.90;;;;;;5214131;22;20078;-71
2022/02/20 05:57:57;;;;;;;11.38;3.78;;;6.20;99.90;;;;;;5214659;22;20040;-71
2022/02/20 05:59:58;;;;;;;9.07;3.03;;;6.20;99.90;;;;;;5215063;22;20011;-71
2022/02/20 06:01:58;;;;;;;12.18;4.10;;;6.20;99.90;;;;;;5214210;22;20448;-71
2022/02/20 06:03:59;;;;;;;7.20;3.47;;;6.20;99.90;;;;;;5187251;22;20445;-71
2022/02/20 06:06:00;;;;;;;6.93;3.55;;;6.10;99.90;;;;;;5213466;22;20011;-71
2022/02/20 06:08:01;;;;;;;10.57;3.85;;;6.10;99.90;;;;;;5215038;22;20019;-71
2022/02/20 06:10:02;;;;;;;9.05;3.50;;;6.00;99.90;;;;;;5214097;22;20037;-71
2022/02/20 06:12:03;;;;;;;7.15;3.80;;;6.00;99.90;;;;;;5213086;22;20011;-72
2022/02/20 06:14:04;;;;;;;8.88;3.53;;;6.00;99.90;;;;;;5187101;22;20349;-72
2022/02/20 06:16:04;;;;;;;9.77;4.03;;;5.90;99.90;;;;;;5214077;22;20015;-73
2022/02/20 06:18:05;;;;;;;6.05;2.92;;;5.90;99.90;;;;;;5187537;22;20500;-72
2022/02/20 06:20:08;;;;;;;9.73;3.80;;;5.90;99.90;;;;;;5214380;22;20011;-72
2022/02/20 06:22:09;;;;;;;7.93;3.60;;;5.90;99.90;;;;;;5186090;22;20114;-72
2022/02/20 06:24:09;;;;;;;15.27;4.32;;;5.80;99.90;;;;;;5213585;22;20068;-72
2022/02/20 06:26:10;;;;;;;15.50;3.80;;;5.80;99.90;;;;;;5214789;22;20011;-72
2022/02/20 06:28:10;;;;;;;9.38;3.75;;;5.90;99.90;;;;;;5186781;22;20004;-73
2022/02/20 06:30:11;;;;;;;17.05;4.35;;;5.90;99.90;;;;;;5214371;22;20011;-72
2022/02/20 06:32:12;;;;;;;13.82;3.83;;;5.90;99.90;;;;;;5215147;22;20077;-72
2022/02/20 06:34:12;;;;;;;12.23;3.97;;;5.90;99.90;;;;;;5215298;22;20019;-72
2022/02/20 06:36:14;;;;;;;11.07;3.90;;;5.90;99.90;;;;;;5186079;22;20318;-72
2022/02/20 06:38:14;;;;;;;16.42;4.43;;;6.00;99.90;;;;;;5214659;22;20015;-72
2022/02/20 06:40:15;;;;;;;11.10;3.60;;;6.00;99.90;;;;;;5214139;22;20378;-72
2022/02/20 06:42:17;;;;;;;11.00;3.75;;;6.00;99.90;;;;;;5215242;22;20019;-72
2022/02/20 06:44:18;;;;;;;11.75;3.90;;;6.00;99.90;;;;;;5186756;22;20028;-72
2022/02/20 06:46:18;;;;;;;14.68;4.25;;;6.00;99.90;;;;;;5186560;22;20488;-73
2022/02/20 06:48:19;;;;;;;18.27;4.65;;;6.00;99.90;;;;;;5214567;22;20491;-72
2022/02/20 06:50:20;;;;;;;12.10;3.88;;;6.00;99.90;;;;;;5213926;22;20449;-72
2022/02/20 06:52:20;;;;;;;12.88;4.30;;;6.10;99.90;;;;;;5214621;22;20018;-72
2022/02/20 06:54:21;;;;;;;17.98;4.45;;;6.10;99.90;;;;;;5214210;22;20011;-72
2022/02/20 06:56:22;;;;;;;13.93;3.85;;;6.10;99.90;;;;;;5214179;22;20436;-72
2022/02/20 06:58:23;;;;;;;16.10;4.13;;;6.10;99.90;;;;;;5214349;22;20007;-72
2022/02/20 07:00:24;;;;;;;21.52;3.92;;;6.20;99.90;;;;;;5213900;22;20019;-72
2022/02/20 07:02:25;;;;;;;16.25;4.70;;;6.20;99.90;;;;;;5214313;22;20011;-72
2022/02/20 07:04:26;;;;;;;14.83;4.07;;;6.20;99.90;;;;;;5186967;22;20015;-72
2022/02/20 07:06:26;;;;;;;15.00;3.63;;;6.20;99.90;;;;;;5213022;22;20394;-72
2022/02/20 07:08:27;;;;;;;17.15;4.18;;;6.30;99.90;;;;;;5213487;22;20129;-72
2022/02/20 07:10:28;;;;;;;14.95;3.42;;;6.30;99.90;;;;;;5187625;22;20023;-72
2022/02/20 07:12:28;;;;;;;13.88;3.60;;;6.40;99.90;;;;;;5215590;22;20016;-72
2022/02/20 07:14:29;;;;;;;17.15;3.90;;;6.40;99.90;;;;;;5215288;22;20022;-73
2022/02/20 07:16:30;;;;;;;15.93;3.95;;;6.50;99.90;;;;;;5214043;22;20019;-72
2022/02/20 07:18:31;;;;;;;13.50;3.60;;;6.50;99.90;;;;;;5188018;22;20012;-72
2022/02/20 07:20:31;;;;;;;19.15;4.72;;;6.50;99.90;;;;;;5215245;22;20016;-72
2022/02/20 07:22:33;;;;;;;23.02;4.75;;;6.60;99.90;;;;;;5215416;22;20014;-73
2022/02/20 07:24:34;;;;;;;16.43;3.60;;;6.60;99.90;;;;;;5215448;22;20015;-73
2022/02/20 07:26:34;;;;;;;11.60;3.50;;;6.70;99.90;;;;;;5214794;22;20368;-72
2022/02/20 07:28:35;;;;;;;19.75;3.95;;;6.80;99.90;;;;;;5187923;22;20060;-72
2022/02/20 07:30:36;;;;;;;14.15;3.72;;;6.80;99.90;;;;;;5186158;22;20012;-72
2022/02/20 07:32:37;;;;;;;16.25;3.58;;;6.80;99.90;;;;;;5214798;22;20053;-72
2022/02/20 07:34:37;;;;;;;17.00;3.60;;;6.90;99.90;;;;;;5214641;22;20015;-72
2022/02/20 07:36:41;;;;;;;12.68;3.00;;;7.00;99.90;;;;;;5214105;22;20014;-72
2022/02/20 07:38:41;;;;;;;16.08;3.67;;;7.10;99.90;;;;;;5213694;22;20500;-72
2022/02/20 07:40:42;;;;;;;17.60;3.88;;;7.10;99.90;;;;;;5187388;22;20008;-72
2022/02/20 07:42:43;;;;;;;20.98;4.32;;;7.20;99.90;;;;;;5215573;22;20083;-72
2022/02/20 07:44:44;;;;;;;23.65;4.32;;;7.30;99.90;;;;;;5215773;22;20132;-72
2022/02/20 07:46:44;;;;;;;22.05;3.55;;;7.40;99.90;;;;;;5214314;22;20502;-72
2022/02/20 07:48:45;;;;;;;21.08;4.38;;;7.40;99.90;;;;;;5215987;22;20011;-72
2022/02/20 07:50:46;;;;;;;19.77;3.53;;;7.50;99.90;;;;;;5215314;22;20038;-72
2022/02/20 07:52:46;;;;;;;23.23;4.18;;;7.60;99.90;;;;;;5187504;22;20015;-72
2022/02/20 07:54:47;;;;;;;15.98;3.25;;;7.60;99.90;;;;;;5215552;22;20015;-72
2022/02/20 07:56:48;;;;;;;19.75;3.63;;;7.70;99.90;;;;;;5215733;22;20050;-72
2022/02/20 07:58:49;;;;;;;19.92;3.78;;;7.80;99.90;;;;;;5187850;22;20087;-72
2022/02/20 08:00:49;;;;;;;19.20;3.20;;;7.80;99.90;;;;;;5215214;22;20011;-72
2022/02/20 08:02:51;;;;;;;13.77;3.40;;;7.90;99.90;;;;;;5215171;22;20387;-72
2022/02/20 08:04:51;;;;;;;18.67;3.78;;;7.90;99.90;;;;;;5188649;22;20007;-72
2022/02/20 08:06:53;;;;;;;17.63;3.65;;;8.00;99.90;;;;;;5187239;22;20403;-73
2022/02/20 08:08:54;;;;;;;17.75;3.53;;;8.10;99.90;;;;;;5215199;22;20638;-73
2022/02/20 08:10:55;;;;;;;20.58;3.83;;;8.10;99.90;;;;;;5214387;22;20041;-73
2022/02/20 08:12:56;;;;;;;14.27;3.13;;;8.10;99.90;;;;;;5215140;22;20015;-73
2022/02/20 08:14:56;;;;;;;14.93;3.25;;;8.20;99.90;;;;;;5214394;22;20456;-73
2022/02/20 08:16:57;;;;;;;15.57;3.40;;;8.20;99.90;;;;;;5213733;22;20007;-73
2022/02/20 08:18:58;;;;;;;13.63;2.75;;;8.20;99.90;;;;;;5213826;22;20011;-73
2022/02/20 08:20:59;;;;;;;17.15;3.30;;;8.30;99.90;;;;;;5212289;22;20033;-73
2022/02/20 08:22:59;;;;;;;13.55;3.03;;;8.30;99.90;;;;;;5185843;22;20055;-72
2022/02/20 08:25:00;;;;;;;13.93;2.97;;;8.40;99.90;;;;;;5186363;22;20008;-73
2022/02/20 08:27:01;;;;;;;11.38;3.17;;;8.40;99.90;;;;;;5211612;22;20809;-73
2022/02/20 08:29:01;;;;;;;11.13;2.72;;;8.40;99.90;;;;;;5210421;22;20004;-73
2022/02/20 08:31:02;;;;;;;11.68;3.15;;;8.50;99.90;;;;;;5182854;22;20011;-72
2022/02/20 08:33:05;;;;;;;12.65;2.55;;;8.50;99.90;;;;;;5213629;22;20004;-72
2022/02/20 08:35:08;;;;;;;8.48;2.53;;;8.50;99.90;;;;;;5159239;23;20004;-72
2022/02/20 08:37:08;;;;;;;;;;;8.60;99.90;;;;;;5209652;22;20004;-72
2022/02/20 08:39:09;;;;;;;6.70;2.13;;;8.60;99.90;;;;;;5209527;22;20240;-72
2022/02/20 08:41:10;;;;;;;9.18;2.50;;;8.60;99.90;;;;;;5184610;22;20004;-73
2022/02/20 08:43:10;;;;;;;11.63;2.75;;;8.60;99.90;;;;;;5211868;22;20247;-72
2022/02/20 08:45:12;;;;;;;12.43;3.13;;;8.60;99.90;;;;;;5158165;23;20434;-73
2022/02/20 08:47:12;;;;;;;11.02;2.83;;;8.70;99.90;;;;;;5183574;22;20023;-73
2022/02/20 08:49:13;;;;;;;11.50;2.85;;;8.70;99.90;;;;;;5184538;22;20027;-72
2022/02/20 08:51:15;;;;;;;12.93;2.45;;;8.70;99.90;;;;;;5158922;23;20091;-72
2022/02/20 08:53:15;;;;;;;9.95;2.40;;;8.80;99.90;;;;;;5213406;22;20069;-72
2022/02/20 08:55:16;;;;;;;8.60;2.13;;;8.80;99.90;;;;;;5183618;22;20232;-73
2022/02/20 08:57:17;;;;;;;7.72;2.63;;;8.80;99.90;;;;;;5183915;22;20016;-73
2022/02/20 08:59:18;;;;;;;12.45;3.13;;;8.80;99.90;;;;;;5212775;22;20018;-73
2022/02/20 09:01:18;;;;;;;9.30;2.22;;;8.80;99.90;;;;;;5212463;22;20508;-73
2022/02/20 09:03:19;;;;;;;9.75;2.55;;;8.80;99.90;;;;;;5158989;23;20012;-73
2022/02/20 09:05:20;;;;;;;7.15;2.20;;;8.90;99.90;;;;;;5182505;22;20091;-73
2022/02/20 09:07:21;;;;;;;8.18;2.47;;;8.90;99.90;;;;;;5211642;22;20117;-73
2022/02/20 09:09:21;;;;;;;8.50;2.40;;;8.90;99.90;;;;;;5159557;23;20047;-73
2022/02/20 09:11:23;;;;;;;8.55;2.38;;;8.90;99.90;;;;;;5184361;22;20010;-73
2022/02/20 09:13:23;;;;;;;10.32;2.80;;;8.90;99.90;;;;;;5211951;22;20007;-73
2022/02/20 09:15:24;;;;;;;11.48;2.17;;;8.90;99.90;;;;;;5157827;23;20087;-73
2022/02/20 09:17:25;;;;;;;8.68;2.30;;;9.00;99.90;;;;;;5183835;22;20391;-73
2022/02/20 09:19:26;;;;;;;10.77;2.85;;;9.00;99.90;;;;;;5184187;22;20045;-74
2022/02/20 09:21:27;;;;;;;12.52;3.00;;;9.00;99.90;;;;;;5184029;22;20011;-73
2022/02/20 09:23:28;;;;;;;11.45;2.85;;;9.00;99.90;;;;;;5211664;22;20019;-73
2022/02/20 09:25:28;;;;;;;9.35;2.45;;;9.00;99.90;;;;;;5210453;22;20015;-73
2022/02/20 09:27:29;;;;;;;11.82;3.00;;;9.00;99.90;;;;;;5210965;22;20064;-73
2022/02/20 09:29:33;;;;;;;11.90;2.80;;;9.00;99.90;;;;;;5184678;22;20008;-73
2022/02/20 09:31:34;;;;;;;13.77;2.20;;;9.10;99.90;;;;;;5183277;22;20091;-74
2022/02/20 09:33:34;;;;;;;8.38;2.22;;;9.10;99.90;;;;;;5184759;22;20388;-73
2022/02/20 09:35:35;;;;;;;8.18;2.47;;;9.10;99.90;;;;;;5183004;22;20161;-73
2022/02/20 09:37:36;;;;;;;11.18;2.22;;;9.10;99.90;;;;;;5184792;22;20357;-73
2022/02/20 09:39:36;;;;;;;9.13;2.25;;;9.10;99.90;;;;;;5158642;23;20450;-73
2022/02/20 09:41:37;;;;;;;7.18;2.13;;;9.10;99.90;;;;;;5183724;22;20011;-73
2022/02/20 09:43:39;;;;;;;7.95;2.38;;;9.10;99.90;;;;;;5210865;22;20027;-73
2022/02/20 09:45:45;;;;;;;9.43;2.38;;;9.10;99.90;;;;;;5182594;22;20063;-73
2022/02/20 09:47:46;;;;;;;6.70;2.30;;;9.10;99.90;;;;;;5183599;22;20065;-73
2022/02/20 09:49:49;;;;;;;11.90;2.42;;;9.20;99.90;;;;;;5212936;22;20015;-73
2022/02/20 09:51:49;;;;;;;11.95;2.50;;;9.20;99.90;;;;;;5212207;22;20011;-73
2022/02/20 09:53:51;;;;;;;7.95;2.78;;;9.20;99.90;;;;;;5157835;23;20548;-73
2022/02/20 09:55:52;;;;;;;12.95;2.70;;;9.20;99.90;;;;;;5211033;22;20015;-73
2022/02/20 09:57:52;;;;;;;11.50;2.80;;;9.20;99.90;;;;;;5211432;22;20007;-73
2022/02/20 09:59:53;;;;;;;12.52;2.47;;;9.30;99.90;;;;;;5184850;22;20012;-74
2022/02/20 10:02:05;;;;;;;10.77;2.67;;;9.30;99.90;;;;;;5211183;22;20007;-73
2022/02/20 10:04:12;;;;;;;8.30;2.40;;;9.30;99.90;;;;;;5211159;22;20011;-72
2022/02/20 10:06:17;;;;;;;11.32;2.42;;;9.30;99.90;;;;;;5181605;22;20008;-72
2022/02/20 10:08:18;;;;;;;7.88;2.13;;;9.40;99.90;;;;;;5211462;22;20029;-72
2022/02/20 10:10:28;;;;;;;6.70;1.67;;;9.40;99.90;;;;;;5157470;23;20016;-72
2022/02/20 10:12:30;;;;;;;10.57;2.10;;;9.40;99.90;;;;;;5158899;23;20008;-73
2022/02/20 10:14:33;;;;;;;11.43;2.63;;;9.50;99.90;;;;;;5184224;22;20014;-72
2022/02/20 10:16:34;;;;;;;9.32;2.17;;;9.50;99.90;;;;;;5209242;22;20117;-73
2022/02/20 10:18:34;;;;;;;13.20;2.28;;;9.50;99.90;;;;;;5184432;22;20012;-73
2022/02/20 10:20:35;;;;;;;6.47;2.00;;;9.50;99.90;;;;;;5183728;22;20373;-73
2022/02/20 10:22:38;;;;;;;7.47;1.77;;;9.60;99.90;;;;;;5184179;22;20015;-74
2022/02/20 10:24:48;;;;;;;;;;;9.60;99.90;;;;;;5212302;22;20026;-72
2022/02/20 10:26:49;;;;;;;7.55;1.50;;;9.60;99.90;;;;;;5183103;22;20345;-73
2022/02/20 10:29:01;;;;;;;10.43;2.30;;;9.60;99.90;;;;;;5186550;22;20012;-73
2022/02/20 10:31:02;;;;;;;9.93;2.17;;;9.60;99.90;;;;;;5184654;22;20012;-73
2022/02/20 10:33:19;;;;;;;9.68;1.63;;;9.60;99.90;;;;;;5185531;22;20452;-73
2022/02/20 10:35:20;;;;;;;16.13;2.85;;;9.60;99.90;;;;;;5159170;23;20042;-73